Tempe, AZ

5:33 AM MST on September 05, 2015 (GMT -0700)
Tempe University Park | | Change Station
CLOSE
Current Station
Personal Weather Station
Location: Tempe, AZ
Elevation: 1148 ft
Nearby Weather Stations

Elev 1148 ft 33.41 °N, 111.93 °W | Updated 47 seconds ago

Partly Cloudy
Partly Cloudy
75.0 °F
Feels Like 75 °F
N
0.0
Wind Variable Wind from NE
Gusts 0.0 mph

Today
High -- | Low -- °F
--% Chance of Precip.
Yesterday
High -- | Low -- °F
Precip. -- in
6:04 AM 6:47 PM
Waning Gibbous, 49% visible
Pressure 29.78 in
Visibility 10.0 miles
Clouds Few 6000 ft
Scattered Clouds 14000 ft
Heat Index 75 °F
Dew Point 70 °F
Humidity 84%
Rainfall 0.00 in
Snow Depth Not available.
UV 0.0 out of 12
Pollen 1.80 out of 12
Air Quality Not available.
Flu Activity Not available.
METAR KPHX 051151Z 14003KT 10SM FEW060 SCT140 27/19 A2984 RMK AO2 SLP085 T02720189 10294 20272 53003
Pressure 29.78 in
Visibility 10.0 miles
Clouds Few 6000 ft
Scattered Clouds 14000 ft
Heat Index 75 °F
Dew Point 70 °F
Humidity 84%
Rainfall 0.00 in
Snow Depth Not available.
UV 0.0 out of 12
Pollen 1.80 out of 12
Air Quality Not available.
Flu Activity Not available.
METAR KPHX 051151Z 14003KT 10SM FEW060 SCT140 27/19 A2984 RMK AO2 SLP085 T02720189 10294 20272 53003

10-Day Weather Forecast

×

Almanac

Astronomy

Sep. 05, 2015 Rise Set
Actual Time
Civil Twilight
Nautical Twilight
Astronomical Twilight
Moon
Length of Visible Light
Length of Day
Tomorrow will be .
, % of the Moon is Illuminated

Today's Extremes

State Highs State Lows

Community

WunderPhotos

Upload Photos

1,852,454 photos uploaded!

WunderBlogs® & News

Nearby

Air Quality

  Air Quality AQ Index Pollutant
Not available.

Snow Depth

Station Depth Elevation

Earthquake Activity

City Distance Mag. Time & Date
Minimum magnitude displayed is 2.5.

Coastal Water Temperatures

Place Temperature

Stations

Nearby Weather Stations

Station Location Temp. Windchill Dew Point Humidity Wind Precip. Elev Updated Type